Time;durP1;ratioP1;P1;durP2;ratioP2;P2;SDS_P1;SDS_P2;PMS_P1;PMS_P2;Temp;Humidity;BMP_temperature;BMP_pressure;BME280_temperature;BME280_humidity;BME280_pressure;Samples;Min_cycle;Max_cycle;Signal;HPM_P1;HPM_P2
2022/01/19 00:00:18;;;;;;;43.88;32.70;;;;;;;-1.30;100.00;103307.63;5240570;28;20092;-85
2022/01/19 00:02:48;;;;;;;38.38;32.35;;;;;;;-1.28;100.00;103290.66;5239653;28;20040;-85
2022/01/19 00:05:19;;;;;;;35.35;30.77;;;;;;;-1.53;100.00;103206.91;5236317;28;20509;-85
2022/01/19 00:07:49;;;;;;;37.47;33.47;;;;;;;-1.19;100.00;103236.94;5236500;28;20048;-86
2022/01/19 00:10:27;;;;;;;34.25;30.80;;;;;;;-0.95;100.00;103260.66;5240792;28;20033;-85
2022/01/19 00:12:58;;;;;;;37.55;30.63;;;;;;;-0.99;100.00;103253.06;5245336;28;20089;-85
2022/01/19 00:15:29;;;;;;;34.10;30.60;;;;;;;-0.77;100.00;103272.44;5243003;28;20227;-85
2022/01/19 00:17:59;;;;;;;41.00;36.15;;;;;;;-0.62;100.00;103257.13;5237847;28;20556;-84
2022/01/19 00:20:32;;;;;;;48.88;38.50;;;;;;;-0.58;100.00;103239.13;5235848;28;20037;-85
2022/01/19 00:23:04;;;;;;;40.40;36.33;;;;;;;-0.94;100.00;103166.88;5234854;28;20057;-84
2022/01/19 00:25:35;;;;;;;41.83;37.10;;;;;;;-0.78;100.00;103206.25;5234025;28;20029;-84
2022/01/19 00:28:05;;;;;;;39.15;34.60;;;;;;;-0.82;100.00;103210.94;5235628;28;20041;-86
2022/01/19 00:30:36;;;;;;;35.67;31.85;;;;;;;-0.76;100.00;103223.72;5235225;28;20037;-86
2022/01/19 00:33:07;;;;;;;35.15;31.52;;;;;;;-0.85;100.00;103192.63;5234917;28;20047;-84
2022/01/19 00:35:37;;;;;;;37.50;33.08;;;;;;;-0.86;100.00;103180.31;5235563;28;20045;-84
2022/01/19 00:38:09;;;;;;;37.85;34.08;;;;;;;-1.26;100.00;103127.03;5234214;28;20033;-83
2022/01/19 00:40:40;;;;;;;38.03;34.53;;;;;;;-0.98;100.00;103186.63;5234505;28;20029;-84
2022/01/19 00:43:11;;;;;;;35.83;32.30;;;;;;;-1.10;100.00;103183.16;5233361;28;20629;-85
2022/01/19 00:45:43;;;;;;;43.80;33.15;;;;;;;-1.26;100.00;103197.75;5233038;28;20033;-85
2022/01/19 00:48:14;;;;;;;42.33;33.85;;;;;;;-1.38;100.00;103208.34;5234328;28;20037;-84
2022/01/19 00:50:44;;;;;;;40.72;31.45;;;;;;;-1.81;100.00;103143.78;5233148;28;20116;-85
2022/01/19 00:53:15;;;;;;;33.97;30.38;;;;;;;-1.69;100.00;103169.31;5233632;28;20090;-85
2022/01/19 00:55:46;;;;;;;36.33;32.50;;;;;;;-1.52;100.00;103213.91;5235049;28;20064;-85
2022/01/19 00:58:16;;;;;;;33.00;29.23;;;;;;;-2.11;100.00;103115.22;5233400;28;20044;-84
2022/01/19 01:00:47;;;;;;;31.95;28.33;;;;;;;-1.58;100.00;103213.53;5234492;28;20036;-85
2022/01/19 01:03:17;;;;;;;33.55;30.35;;;;;;;-1.70;100.00;103220.59;5234829;28;20063;-86
2022/01/19 01:05:48;;;;;;;32.15;29.10;;;;;;;-1.99;100.00;103167.22;5233798;28;20040;-86
2022/01/19 01:08:18;;;;;;;31.40;28.10;;;;;;;-1.79;100.00;103189.53;5233576;28;20029;-84
2022/01/19 01:10:51;;;;;;;34.15;30.92;;;;;;;-1.83;100.00;103188.94;5233126;28;20044;-85
2022/01/19 01:18:31;;;;;;;32.58;29.60;;;;;;;-1.89;100.00;103189.41;5235015;28;20391;-86
2022/01/19 01:21:02;;;;;;;33.67;30.65;;;;;;;-2.11;100.00;103150.47;5234193;28;20036;-85
2022/01/19 01:23:34;;;;;;;31.88;29.00;;;;;;;-2.05;100.00;103167.72;5234102;28;20033;-86
2022/01/19 01:26:07;;;;;;;35.83;32.08;;;;;;;-2.30;100.00;103144.03;5237084;28;20044;-87
2022/01/19 01:28:37;;;;;;;37.22;30.65;;;;;;;-2.05;100.00;103171.19;5237638;28;20033;-86
2022/01/19 01:31:09;;;;;;;34.95;31.50;;;;;;;-2.05;100.00;103165.91;5238217;28;20036;-87
2022/01/19 01:33:40;;;;;;;34.40;28.58;;;;;;;-2.05;100.00;103146.53;5238667;28;20059;-88
2022/01/19 01:36:11;;;;;;;35.17;30.05;;;;;;;-2.10;100.00;103146.03;5237956;28;20029;-86
2022/01/19 01:38:41;;;;;;;43.47;33.50;;;;;;;-2.15;100.00;103159.63;5238166;28;20040;-86
2022/01/19 01:41:14;;;;;;;31.67;28.65;;;;;;;-2.33;100.00;103094.88;5239119;28;20095;-88
2022/01/19 01:43:45;;;;;;;43.25;32.35;;;;;;;-2.27;100.00;103110.25;5238312;28;20029;-87
2022/01/19 01:46:33;;;;;;;36.80;30.42;;;;;;;-2.53;100.00;103077.00;5238828;28;20041;-85
2022/01/19 01:49:04;;;;;;;33.97;29.90;;;;;;;-2.26;100.00;103121.69;5238084;28;20083;-88
2022/01/19 01:54:24;;;;;;;33.40;30.13;;;;;;;-2.48;100.00;103080.13;5239482;28;20083;-86
2022/01/19 01:56:55;;;;;;;33.60;30.05;;;;;;;-2.45;100.00;103080.75;5240115;28;20068;-86
2022/01/19 01:59:25;;;;;;;31.83;29.13;;;;;;;-2.48;100.00;103069.56;5240077;28;20033;-87
2022/01/19 02:01:56;;;;;;;37.53;33.63;;;;;;;-2.48;100.00;103074.84;5239278;28;20578;-87
2022/01/19 02:04:27;;;;;;;37.78;33.17;;;;;;;-2.42;100.00;103079.69;5238491;28;20097;-86
2022/01/19 02:09:50;;;;;;;37.92;34.15;;;;;;;-2.45;100.00;103045.53;5240275;28;20045;-85
2022/01/19 02:23:45;;;;;;;288.40;51.85;;;;;;;-1.74;100.00;103068.19;5241613;28;20119;-58
2022/01/19 02:26:27;;;;;;;164.73;43.83;;;;;;;-1.75;100.00;103038.22;5231700;28;20040;-61
2022/01/19 02:29:08;;;;;;;70.20;34.47;;;;;;;-1.59;100.00;103047.59;5249669;28;20047;-59
2022/01/19 02:40:13;;;;;;;103.20;34.63;;;;;;;-1.44;100.00;103020.69;5249691;28;20039;-60
2022/01/19 02:51:01;;;;;;;151.48;39.88;;;;;;;-1.23;100.00;103017.25;5249401;28;20079;-58
2022/01/19 02:53:36;;;;;;;128.43;42.55;;;;;;;-1.27;100.00;103000.78;5230994;28;20405;-63
2022/01/19 02:56:11;;;;;;;163.57;41.20;;;;;;;-1.17;100.00;103011.47;5231023;28;20040;-61
2022/01/19 02:58:51;;;;;;;130.82;40.05;;;;;;;-1.17;100.00;103007.00;5231200;28;20047;-59
2022/01/19 03:09:31;;;;;;;163.95;41.28;;;;;;;-1.10;100.00;102991.41;5248700;28;20021;-61
2022/01/19 03:12:01;;;;;;;90.15;32.97;;;;;;;-1.17;100.00;102982.31;5230677;28;20129;-60
2022/01/19 03:14:32;;;;;;;232.77;43.58;;;;;;;-1.12;100.00;102980.94;5230670;28;20032;-58
2022/01/19 03:17:03;;;;;;;241.98;48.88;;;;;;;-1.15;100.00;102975.03;5230747;28;20040;-61
2022/01/19 03:19:34;;;;;;;184.35;47.38;;;;;;;-1.16;100.00;102973.38;5230762;28;20032;-61
2022/01/19 03:22:04;;;;;;;150.00;39.10;;;;;;;-1.14;100.00;102974.06;5230639;28;20082;-58
2022/01/19 03:24:38;;;;;;;281.27;50.05;;;;;;;-1.13;100.00;102975.75;5230394;28;20039;-59
2022/01/19 03:27:09;;;;;;;287.65;48.30;;;;;;;-1.19;100.00;102965.69;5230658;28;20059;-58
2022/01/19 03:29:39;;;;;;;169.75;41.92;;;;;;;-1.31;100.00;102943.69;5230244;28;20032;-59
2022/01/19 03:32:11;;;;;;;164.27;35.63;;;;;;;-1.21;100.00;102967.63;5230493;28;20032;-63
2022/01/19 03:34:41;;;;;;;234.38;46.28;;;;;;;-1.27;100.00;102950.41;5230135;28;20037;-59
2022/01/19 03:37:12;;;;;;;62.47;33.65;;;;;;;-1.21;100.00;102957.84;5230551;28;20035;-64
2022/01/19 03:39:42;;;;;;;151.10;45.28;;;;;;;-1.24;100.00;102942.19;5230052;28;20399;-64
2022/01/19 03:42:13;;;;;;;107.22;39.13;;;;;;;-1.28;100.00;102934.63;5230094;28;20032;-59
2022/01/19 03:44:44;;;;;;;98.32;38.05;;;;;;;-1.25;100.00;102929.06;5229966;28;20062;-61
2022/01/19 03:47:14;;;;;;;116.00;38.35;;;;;;;-1.30;100.00;102923.31;5230104;28;20034;-63
2022/01/19 03:49:45;;;;;;;107.30;38.80;;;;;;;-1.29;100.00;102914.41;5229895;28;20032;-64
2022/01/19 03:52:15;;;;;;;141.85;38.45;;;;;;;-1.34;100.00;102900.69;5229967;28;20493;-61
2022/01/19 03:54:46;;;;;;;131.23;38.17;;;;;;;-1.38;100.00;102903.59;5229700;28;20130;-62
2022/01/19 03:57:16;;;;;;;124.50;36.80;;;;;;;-1.45;100.00;102891.84;5230146;28;20035;-61
2022/01/19 03:59:47;;;;;;;152.57;38.78;;;;;;;-1.37;100.00;102910.56;5230203;28;20036;-61
2022/01/19 04:02:19;;;;;;;78.47;35.30;;;;;;;-1.40;100.00;102908.16;5230073;28;20067;-64
2022/01/19 04:05:00;;;;;;;41.05;30.83;;;;;;;-1.50;100.00;102898.47;5229401;28;20139;-63
2022/01/19 04:07:30;;;;;;;87.50;36.55;;;;;;;-1.53;100.00;102888.97;5230126;28;20511;-64
2022/01/19 04:10:03;;;;;;;54.22;36.63;;;;;;;-1.58;100.00;102898.25;5229842;28;20283;-61
2022/01/19 04:12:53;;;;;;;43.25;36.70;;;;;;;-1.55;100.00;102903.31;5229682;28;20035;-59
2022/01/19 04:15:24;;;;;;;40.65;36.65;;;;;;;-1.94;100.00;102862.38;5229250;28;20051;-59
2022/01/19 04:17:54;;;;;;;44.10;38.20;;;;;;;-1.74;100.00;102917.22;5229612;28;20040;-61
2022/01/19 04:20:26;;;;;;;40.40;36.08;;;;;;;-1.86;100.00;102912.94;5229534;28;20036;-64
2022/01/19 04:22:56;;;;;;;40.20;35.13;;;;;;;-1.85;100.00;102911.97;5229583;28;20123;-64
2022/01/19 04:25:27;;;;;;;42.70;37.67;;;;;;;-1.76;100.00;102916.50;5247148;28;20039;-62
2022/01/19 04:27:57;;;;;;;41.45;37.58;;;;;;;-1.61;100.00;102917.91;5229388;28;20033;-58
2022/01/19 04:30:29;;;;;;;38.83;35.33;;;;;;;-1.47;100.00;102911.47;5229166;28;20458;-60
2022/01/19 04:35:34;;;;;;;42.00;37.53;;;;;;;-1.25;100.00;102887.50;5246610;28;20432;-59
2022/01/19 05:05:38;;;;;;;38.75;34.95;;;;;;;-0.60;100.00;102857.16;5246362;28;19961;-58
2022/01/19 05:08:57;;;;;;;41.33;36.95;;;;;;;-0.70;100.00;102835.88;5228514;28;20064;-63
2022/01/19 05:13:51;;;;;;;42.40;38.10;;;;;;;-0.37;100.00;102881.69;5246343;28;20047;-60
2022/01/19 05:16:23;;;;;;;38.85;34.67;;;;;;;-0.34;100.00;102873.44;5228793;28;20111;-62
2022/01/19 05:18:53;;;;;;;42.58;37.55;;;;;;;-0.29;100.00;102873.06;5228344;28;20504;-57
2022/01/19 05:21:24;;;;;;;38.15;34.22;;;;;;;-0.27;100.00;102857.78;5228184;28;20068;-60
2022/01/19 05:23:54;;;;;;;37.50;33.70;;;;;;;-0.24;100.00;102861.03;5228442;28;20075;-62
2022/01/19 05:26:24;;;;;;;39.17;34.88;;;;;;;-0.35;100.00;102837.25;5228474;28;20045;-62
2022/01/19 05:28:55;;;;;;;43.42;38.85;;;;;;;-0.26;100.00;102838.22;5228359;28;20405;-59
2022/01/19 05:31:26;;;;;;;38.28;34.42;;;;;;;-0.11;100.00;102858.97;5228233;28;20504;-58
2022/01/19 05:33:57;;;;;;;33.97;30.75;;;;;;;-0.09;100.00;102851.72;5228203;28;20100;-61
2022/01/19 05:36:27;;;;;;;44.00;36.08;;;;;;;-0.07;100.00;102836.47;5246383;28;20112;-57
2022/01/19 05:38:58;;;;;;;46.13;35.22;;;;;;;-0.05;100.00;102839.00;5228433;28;20028;-57
2022/01/19 05:41:28;;;;;;;38.17;34.17;;;;;;;0.00;100.00;102837.56;5228312;28;20465;-58
2022/01/19 05:43:58;;;;;;;37.90;34.25;;;;;;;-0.07;100.00;102830.31;5227701;28;20029;-56
2022/01/19 05:46:29;;;;;;;34.50;31.20;;;;;;;0.05;100.00;102841.63;5228393;28;20067;-58
2022/01/19 05:48:59;;;;;;;36.25;32.80;;;;;;;0.05;100.00;102829.19;5221100;28;20028;-61
2022/01/19 05:51:30;;;;;;;34.70;31.42;;;;;;;0.15;100.00;102835.38;5227345;28;20044;-58
2022/01/19 05:54:01;;;;;;;35.50;32.03;;;;;;;0.18;100.00;102831.59;5227809;28;20090;-59
2022/01/19 05:56:32;;;;;;;36.50;33.03;;;;;;;0.13;100.00;102818.72;5227759;28;20037;-57
2022/01/19 05:59:02;;;;;;;35.25;31.65;;;;;;;0.16;100.00;102814.97;5227280;28;20032;-59
2022/01/19 06:01:33;;;;;;;34.42;30.92;;;;;;;0.27;100.00;102822.78;5227197;28;20028;-59
2022/01/19 06:04:04;;;;;;;38.97;35.10;;;;;;;0.25;100.00;102806.16;5227041;28;20308;-59
2022/01/19 06:06:34;;;;;;;34.35;30.88;;;;;;;0.29;100.00;102807.53;5227185;28;20484;-59
2022/01/19 06:09:10;;;;;;;33.95;30.35;;;;;;;0.36;100.00;102813.13;5226926;28;20040;-61
2022/01/19 06:11:41;;;;;;;38.22;31.50;;;;;;;0.41;100.00;102821.50;5247045;28;20469;-60
2022/01/19 06:14:11;;;;;;;34.97;31.48;;;;;;;0.45;100.00;102821.09;5231272;28;20116;-59
2022/01/19 06:16:45;;;;;;;31.33;28.45;;;;;;;0.49;100.00;102816.34;5230904;28;20025;-57
2022/01/19 06:19:19;;;;;;;35.55;32.20;;;;;;;0.54;100.00;102820.25;5230828;28;20025;-62
2022/01/19 06:21:50;;;;;;;34.42;31.45;;;;;;;0.54;100.00;102809.63;5228794;28;20078;-63
2022/01/19 06:24:21;;;;;;;35.70;31.92;;;;;;;0.58;100.00;102812.81;5204148;28;20081;-60
2022/01/19 06:26:51;;;;;;;36.05;28.83;;;;;;;0.55;100.00;102808.63;5208369;28;20091;-58
2022/01/19 06:29:22;;;;;;;34.55;31.20;;;;;;;0.65;100.00;102804.13;5210848;28;20113;-59
2022/01/19 06:31:52;;;;;;;33.72;30.35;;;;;;;0.67;100.00;102796.84;5210522;28;20044;-58
2022/01/19 06:34:23;;;;;;;32.20;29.33;;;;;;;0.66;100.00;102789.84;5210479;28;20033;-59
2022/01/19 06:36:53;;;;;;;33.90;30.52;;;;;;;0.73;100.00;102790.13;5210695;28;20128;-58
2022/01/19 06:39:24;;;;;;;35.95;32.03;;;;;;;0.79;100.00;102791.38;5210434;28;20029;-58
2022/01/19 06:41:54;;;;;;;34.97;31.25;;;;;;;0.82;100.00;102799.06;5210457;28;20029;-64
2022/01/19 06:44:25;;;;;;;34.33;30.95;;;;;;;0.86;100.00;102789.81;5210143;28;20041;-63
2022/01/19 06:46:55;;;;;;;75.65;70.13;;;;;;;0.89;100.00;102778.84;5210474;28;20032;-62
2022/01/19 06:49:26;;;;;;;35.40;32.05;;;;;;;0.80;100.00;102756.66;5210392;28;20032;-59
2022/01/19 06:51:56;;;;;;;33.97;30.48;;;;;;;0.88;100.00;102766.53;5210208;28;20033;-60
2022/01/19 06:54:27;;;;;;;33.50;30.13;;;;;;;0.97;100.00;102765.69;5210006;28;20417;-60
2022/01/19 06:56:57;;;;;;;38.33;29.75;;;;;;;0.88;100.00;102746.09;5210496;28;20124;-63
2022/01/19 06:59:28;;;;;;;32.10;29.20;;;;;;;1.02;100.00;102755.44;5210274;28;20036;-60
2022/01/19 07:01:58;;;;;;;33.85;30.45;;;;;;;1.07;100.00;102758.50;5209799;28;20037;-55
2022/01/19 07:04:29;;;;;;;35.50;32.10;;;;;;;1.11;100.00;102751.91;5209845;28;20033;-59
2022/01/19 07:06:59;;;;;;;37.13;33.22;;;;;;;1.11;100.00;102751.06;5209974;28;20463;-59
2022/01/19 07:09:30;;;;;;;34.15;31.40;;;;;;;1.15;100.00;102752.44;5209845;28;20025;-57
2022/01/19 07:12:00;;;;;;;33.08;29.95;;;;;;;1.17;100.00;102742.47;5209804;28;20040;-58
2022/01/19 07:14:31;;;;;;;36.63;33.40;;;;;;;1.21;100.00;102731.38;5209649;28;20029;-60
2022/01/19 07:17:01;;;;;;;39.25;34.95;;;;;;;1.25;100.00;102738.09;5209763;28;20036;-56
2022/01/19 07:19:32;;;;;;;31.92;29.40;;;;;;;0.93;100.00;102668.53;5209516;28;20048;-56
2022/01/19 07:22:02;;;;;;;33.78;30.73;;;;;;;1.32;100.00;102731.19;5209315;28;20508;-60
2022/01/19 07:24:33;;;;;;;34.15;30.55;;;;;;;1.35;100.00;102725.56;5208873;28;20485;-57
2022/01/19 07:27:04;;;;;;;33.22;30.13;;;;;;;1.33;100.00;102708.06;5209608;28;20052;-54
2022/01/19 07:29:34;;;;;;;32.75;29.33;;;;;;;1.43;100.00;102714.19;5209360;28;20040;-57
2022/01/19 07:32:05;;;;;;;31.77;28.88;;;;;;;1.46;100.00;102719.19;5227278;28;20048;-59
2022/01/19 07:34:36;;;;;;;32.55;29.73;;;;;;;1.48;100.00;102721.69;5209116;28;20033;-56
2022/01/19 07:37:06;;;;;;;32.60;29.45;;;;;;;1.51;100.00;102710.75;5209393;28;20408;-57
2022/01/19 07:39:38;;;;;;;28.15;25.50;;;;;;;1.55;100.00;102714.78;5209288;28;20032;-55
2022/01/19 07:42:08;;;;;;;30.67;27.38;;;;;;;1.59;100.00;102708.16;5227295;28;20481;-56
2022/01/19 07:44:41;;;;;;;33.35;30.02;;;;;;;1.41;100.00;102673.56;5208890;28;20044;-54
2022/01/19 07:47:12;;;;;;;30.95;27.95;;;;;;;1.69;100.00;102711.59;5209258;28;20249;-58
2022/01/19 07:49:43;;;;;;;30.98;27.98;;;;;;;1.67;100.00;102711.75;5209060;28;20503;-57
2022/01/19 07:52:14;;;;;;;31.38;28.42;;;;;;;1.62;100.00;102695.41;5208998;28;20037;-57
2022/01/19 07:54:44;;;;;;;27.30;24.90;;;;;;;1.77;100.00;102717.00;5208882;28;20186;-54
2022/01/19 07:57:15;;;;;;;28.38;25.92;;;;;;;1.70;100.00;102702.63;5208875;28;20066;-59
2022/01/19 07:59:45;;;;;;;31.13;28.08;;;;;;;1.81;100.00;102710.38;5208969;28;20036;-55
2022/01/19 08:02:16;;;;;;;31.50;28.73;;;;;;;1.81;100.00;102704.19;5208814;28;20408;-53
2022/01/19 08:04:47;;;;;;;32.33;29.50;;;;;;;1.81;100.00;102707.69;5225190;28;20028;-60
2022/01/19 08:07:17;;;;;;;30.38;27.30;;;;;;;1.68;100.00;102680.63;5229293;28;20102;-60
2022/01/19 08:09:48;;;;;;;31.25;28.10;;;;;;;1.85;100.00;102708.25;5228907;28;20092;-56
2022/01/19 08:12:19;;;;;;;32.53;29.55;;;;;;;1.84;100.00;102710.06;5229106;28;20024;-55
2022/01/19 08:14:49;;;;;;;29.77;26.77;;;;;;;1.81;100.00;102707.69;5228918;28;20036;-58
2022/01/19 08:17:19;;;;;;;31.48;28.83;;;;;;;1.83;100.00;102711.06;5228921;28;20036;-60
2022/01/19 08:19:50;;;;;;;29.42;26.52;;;;;;;1.79;100.00;102703.53;5228817;28;20472;-59
2022/01/19 08:22:21;;;;;;;31.90;28.85;;;;;;;1.83;100.00;102711.06;5228783;28;20040;-59
2022/01/19 08:24:51;;;;;;;32.70;29.30;;;;;;;1.84;100.00;102704.72;5228638;28;20040;-58
2022/01/19 08:27:22;;;;;;;32.03;28.73;;;;;;;1.88;100.00;102699.94;5228889;28;20036;-58
2022/01/19 08:29:53;;;;;;;32.38;28.98;;;;;;;1.90;100.00;102701.47;5247152;28;20550;-58
2022/01/19 08:32:24;;;;;;;31.17;28.25;;;;;;;1.91;100.00;102691.66;5228712;28;20028;-57
2022/01/19 08:34:55;;;;;;;33.47;30.25;;;;;;;1.95;100.00;102688.53;5227304;28;20436;-58
2022/01/19 08:37:25;;;;;;;34.50;31.02;;;;;;;1.82;100.00;102673.91;5228592;28;20066;-55
2022/01/19 08:39:56;;;;;;;30.80;27.77;;;;;;;1.99;100.00;102703.22;5228558;28;20385;-58
2022/01/19 08:42:28;;;;;;;31.45;28.55;;;;;;;1.99;100.00;102705.88;5228566;28;20036;-60
2022/01/19 08:45:04;;;;;;;31.33;28.15;;;;;;;1.98;100.00;102698.88;5228265;28;20036;-57
2022/01/19 08:47:36;;;;;;;29.23;26.60;;;;;;;2.04;100.00;102684.06;5228517;28;20032;-57
2022/01/19 08:50:10;;;;;;;32.78;29.67;;;;;;;2.04;100.00;102676.91;5228352;28;20098;-57
2022/01/19 08:52:40;;;;;;;31.63;28.95;;;;;;;2.06;100.00;102676.75;5228677;28;20029;-60
2022/01/19 08:55:12;;;;;;;29.15;26.60;;;;;;;2.08;100.00;102672.13;5228116;28;20044;-58
2022/01/19 08:57:44;;;;;;;29.98;27.05;;;;;;;2.03;100.00;102675.25;5228188;28;20063;-58
2022/01/19 09:00:16;;;;;;;30.25;27.48;;;;;;;2.07;100.00;102670.44;5228375;28;20381;-60
2022/01/19 09:02:47;;;;;;;30.10;27.45;;;;;;;2.10;100.00;102669.28;5228303;28;20040;-58
2022/01/19 09:05:18;;;;;;;31.05;28.05;;;;;;;2.04;100.00;102655.59;5228134;28;20400;-58
2022/01/19 09:07:48;;;;;;;28.83;26.27;;;;;;;2.07;100.00;102662.44;5228287;28;20036;-57
2022/01/19 09:10:21;;;;;;;31.58;28.08;;;;;;;1.99;100.00;102643.75;5228074;28;20456;-59
2022/01/19 09:12:52;;;;;;;38.38;31.52;;;;;;;2.17;100.00;102671.19;5228184;28;20086;-58
2022/01/19 09:15:23;;;;;;;28.73;26.13;;;;;;;2.08;100.00;102648.13;5227556;28;20488;-57
2022/01/19 09:17:54;;;;;;;30.98;27.98;;;;;;;2.11;100.00;102650.50;5228152;28;20123;-59
2022/01/19 09:20:24;;;;;;;34.15;30.92;;;;;;;2.24;100.00;102666.91;5227931;28;20273;-60
2022/01/19 09:22:55;;;;;;;29.35;26.88;;;;;;;2.21;100.00;102669.06;5227950;28;20044;-56
2022/01/19 09:25:26;;;;;;;35.17;31.73;;;;;;;2.19;100.00;102655.03;5227922;28;20038;-59
2022/01/19 09:27:57;;;;;;;32.72;29.65;;;;;;;2.26;100.00;102669.41;5228080;28;20558;-58
2022/01/19 09:30:28;;;;;;;35.33;31.80;;;;;;;2.23;100.00;102664.41;5227925;28;20037;-58
2022/01/19 09:33:09;;;;;;;34.00;30.17;;;;;;;2.23;100.00;102669.72;5227941;28;20032;-60
2022/01/19 09:36:03;;;;;;;33.75;30.42;;;;;;;2.20;100.00;102664.72;5227880;28;20107;-61
2022/01/19 09:38:37;;;;;;;30.25;27.70;;;;;;;2.17;100.00;102652.53;5228037;28;20051;-61
2022/01/19 09:41:08;;;;;;;36.80;32.78;;;;;;;2.17;100.00;102646.38;5228028;28;20036;-58
2022/01/19 09:43:40;;;;;;;32.05;29.23;;;;;;;2.24;100.00;102658.91;5227395;28;20040;-61
2022/01/19 09:46:10;;;;;;;32.92;30.05;;;;;;;2.27;100.00;102655.09;5229066;28;20044;-60
2022/01/19 09:48:41;;;;;;;36.75;32.05;;;;;;;2.27;100.00;102647.09;5231874;28;20033;-60
2022/01/19 09:51:14;;;;;;;34.92;31.88;;;;;;;2.30;100.00;102636.13;5231866;28;20029;-58
2022/01/19 09:53:47;;;;;;;31.75;28.80;;;;;;;2.31;100.00;102635.13;5249688;28;20102;-58
2022/01/19 09:56:20;;;;;;;32.55;29.88;;;;;;;2.17;100.00;102609.06;5231935;28;20033;-60
2022/01/19 09:58:50;;;;;;;31.02;28.20;;;;;;;2.28;100.00;102622.13;5231884;28;20036;-58
2022/01/19 10:01:22;;;;;;;35.13;31.73;;;;;;;2.24;100.00;102610.09;5231641;28;20051;-58
2022/01/19 10:03:53;;;;;;;32.80;29.90;;;;;;;2.26;100.00;102611.63;5231544;28;20066;-58
2022/01/19 10:06:24;;;;;;;34.67;31.40;;;;;;;2.27;100.00;102610.63;5229716;28;20070;-61
2022/01/19 10:08:56;;;;;;;31.67;28.80;;;;;;;2.30;100.00;102598.81;5231640;28;20072;-58
2022/01/19 10:17:06;;;;;;;33.70;30.45;;;;;;;2.36;100.00;102590.16;5250098;28;20500;-58
2022/01/19 10:19:42;;;;;;;30.90;28.20;;;;;;;2.21;100.00;102562.44;5231849;28;20032;-58
2022/01/19 10:22:18;;;;;;;30.95;28.25;;;;;;;2.38;100.00;102598.81;5231603;28;20109;-57
2022/01/19 10:25:04;;;;;;;33.83;31.02;;;;;;;2.25;100.00;102572.63;5231671;28;20054;-60
2022/01/19 10:27:45;;;;;;;33.78;30.75;;;;;;;2.38;100.00;102582.84;5231796;28;20032;-56
2022/01/19 10:30:20;;;;;;;33.15;30.27;;;;;;;2.42;100.00;102573.53;5231724;28;20037;-56
2022/01/19 10:33:02;;;;;;;31.17;28.05;;;;;;;2.45;100.00;102573.19;5231750;28;20036;-57
2022/01/19 10:35:38;;;;;;;35.30;31.48;;;;;;;2.48;100.00;102580.06;5231540;28;20028;-55
2022/01/19 10:38:20;;;;;;;34.65;31.27;;;;;;;2.48;100.00;102566.72;5231755;28;20119;-57
2022/01/19 10:41:02;;;;;;;35.67;32.25;;;;;;;2.48;100.00;102562.22;5231969;28;20519;-56
2022/01/19 10:43:48;;;;;;;37.00;33.47;;;;;;;2.49;100.00;102569.22;5231990;28;20062;-58
2022/01/19 10:46:34;;;;;;;39.05;33.63;;;;;;;2.59;100.00;102561.94;5231486;28;20086;-60
2022/01/19 10:49:07;;;;;;;34.55;31.30;;;;;;;2.66;100.00;102560.28;5231466;28;20496;-57
2022/01/19 10:51:45;;;;;;;35.90;32.95;;;;;;;2.73;100.00;102563.13;5231501;28;20028;-58
2022/01/19 10:54:19;;;;;;;36.75;33.67;;;;;;;2.72;100.00;102558.78;5231153;28;20046;-57
2022/01/19 10:56:55;;;;;;;34.63;31.35;;;;;;;2.82;100.00;102564.00;5231376;28;20504;-58
2022/01/19 10:59:29;;;;;;;33.85;30.60;;;;;;;2.85;100.00;102553.84;5230453;28;20036;-58
2022/01/19 11:02:01;;;;;;;35.72;32.17;;;;;;;2.74;100.00;102540.78;5231154;28;20033;-61
2022/01/19 11:04:34;;;;;;;34.53;31.52;;;;;;;2.85;100.00;102553.00;5230741;28;20051;-58
2022/01/19 11:07:07;;;;;;;34.45;31.23;;;;;;;2.87;100.00;102551.84;5230919;28;20105;-58
2022/01/19 11:09:57;;;;;;;36.90;33.10;;;;;;;2.94;100.00;102542.16;5229533;28;20041;-63
2022/01/19 11:12:34;;;;;;;35.83;32.70;;;;;;;2.99;100.00;102534.50;5209120;28;20056;-62
2022/01/19 11:15:07;;;;;;;34.38;31.48;;;;;;;3.00;100.00;102516.66;5209870;28;20123;-58
2022/01/19 11:17:38;;;;;;;34.65;31.60;;;;;;;3.07;100.00;102530.16;5209941;28;20195;-61
2022/01/19 11:20:15;;;;;;;31.90;29.02;;;;;;;3.10;100.00;102520.00;5209884;28;20153;-60
2022/01/19 11:23:03;;;;;;;37.47;33.42;;;;;;;3.10;100.00;102524.50;5209607;28;20033;-59
2022/01/19 11:26:02;;;;;;;32.08;29.33;;;;;;;3.07;100.00;102509.66;5227717;28;20150;-62
2022/01/19 11:28:39;;;;;;;34.53;31.13;;;;;;;3.03;100.00;102501.16;5209671;28;20035;-61
2022/01/19 11:31:38;;;;;;;32.42;29.48;;;;;;;2.98;100.00;102499.97;5209366;28;20036;-58
2022/01/19 11:34:09;;;;;;;37.33;33.57;;;;;;;2.95;100.00;102485.13;5209214;28;20432;-61
2022/01/19 11:36:42;;;;;;;34.30;30.77;;;;;;;2.96;100.00;102483.28;5209555;28;20143;-59
2022/01/19 11:39:21;;;;;;;36.63;33.03;;;;;;;2.96;100.00;102476.13;5209641;28;20036;-60
2022/01/19 11:42:04;;;;;;;31.88;28.85;;;;;;;3.00;100.00;102485.47;5209426;28;20523;-58
2022/01/19 11:44:35;;;;;;;36.22;32.53;;;;;;;3.04;100.00;102478.78;5209057;28;20127;-58
2022/01/19 11:47:09;;;;;;;35.70;32.28;;;;;;;3.10;100.00;102476.47;5209387;28;20037;-59
2022/01/19 11:50:03;;;;;;;33.80;30.42;;;;;;;3.13;100.00;102462.78;5209251;28;20071;-62
2022/01/19 11:52:36;;;;;;;34.92;31.58;;;;;;;3.13;100.00;102466.28;5206510;28;20075;-58
2022/01/19 11:55:18;;;;;;;33.35;30.23;;;;;;;3.16;100.00;102465.13;5185596;28;20037;-58
2022/01/19 11:58:11;;;;;;;33.25;29.80;;;;;;;3.19;100.00;102459.41;5205999;28;20481;-57
2022/01/19 12:00:46;;;;;;;35.75;32.40;;;;;;;3.17;100.00;102440.09;5186420;28;20454;-61
2022/01/19 12:03:21;;;;;;;41.05;33.70;;;;;;;3.22;100.00;102443.91;5205098;28;20053;-62
2022/01/19 12:05:53;;;;;;;32.65;29.52;;;;;;;3.24;100.00;102446.41;5188177;28;20037;-58
2022/01/19 12:08:30;;;;;;;32.92;29.65;;;;;;;3.27;100.00;102435.41;5187863;28;20030;-59
2022/01/19 12:11:13;;;;;;;34.95;31.50;;;;;;;3.40;100.00;102422.38;5187686;28;20037;-60
2022/01/19 12:14:14;;;;;;;35.65;32.33;;;;;;;3.51;100.00;102415.81;5187383;28;20040;-58
2022/01/19 12:16:57;;;;;;;35.42;32.28;;;;;;;3.66;100.00;102403.41;5199297;28;20032;-59
2022/01/19 12:19:36;;;;;;;32.17;29.17;;;;;;;3.82;100.00;102403.34;5206737;28;20037;-58
2022/01/19 12:22:20;;;;;;;35.85;32.25;;;;;;;4.02;100.00;102391.25;5187232;28;20049;-60
2022/01/19 12:24:59;;;;;;;35.03;31.73;;;;;;;4.13;100.00;102383.81;5205377;28;20024;-60
2022/01/19 12:27:34;;;;;;;28.63;25.83;;;;;;;4.26;100.00;102384.06;5207983;28;20033;-60
2022/01/19 12:30:05;;;;;;;34.22;31.00;;;;;;;4.29;100.00;102383.72;5226024;28;20384;-60
2022/01/19 12:32:44;;;;;;;28.85;26.08;;;;;;;4.31;100.00;102387.88;5208082;28;20132;-61
2022/01/19 12:35:15;;;;;;;38.88;30.83;;;;;;;4.37;100.00;102381.81;5200437;28;20085;-59
2022/01/19 12:37:47;;;;;;;32.75;29.35;;;;;;;4.37;100.00;102386.31;5187392;28;20664;-59
2022/01/19 12:40:18;;;;;;;31.38;28.70;;;;;;;4.38;100.00;102379.97;5187450;28;20378;-60
2022/01/19 12:42:51;;;;;;;33.20;29.88;;;;;;;4.29;100.00;102368.50;5187492;28;20063;-62
2022/01/19 12:45:28;;;;;;;33.63;30.80;;;;;;;4.36;100.00;102368.63;5187063;28;20136;-59
2022/01/19 12:48:00;;;;;;;30.55;27.77;;;;;;;4.37;100.00;102368.44;5187045;28;20029;-62
2022/01/19 12:50:42;;;;;;;31.55;28.88;;;;;;;4.38;100.00;102366.59;5186750;28;20417;-61
2022/01/19 12:53:22;;;;;;;33.80;30.70;;;;;;;4.31;100.00;102360.31;5217747;28;20060;-61
2022/01/19 12:55:58;;;;;;;;;;;;;;;4.31;100.00;102357.63;5209664;28;20473;-57
2022/01/19 12:58:35;;;;;;;31.05;28.13;;;;;;;4.32;100.00;102361.97;5207110;28;19913;-56